createdAt,value
2023-03-29T00:01:41.886Z,7.25
2023-03-29T00:04:10.112Z,10.48
2023-03-29T00:06:36.750Z,6.38
2023-03-29T00:09:05.465Z,8.32
2023-03-29T00:11:32.395Z,11.45
2023-03-29T00:13:58.814Z,11.45
2023-03-29T00:16:25.304Z,7.80
2023-03-29T00:18:51.869Z,5.50
2023-03-29T00:21:18.315Z,7.50
2023-03-29T00:23:44.718Z,6.95
2023-03-29T00:26:11.721Z,6.72
2023-03-29T00:28:38.200Z,4.30
2023-03-29T00:31:10.562Z,5.97
2023-03-29T00:33:37.447Z,8.18
2023-03-29T00:36:04.674Z,5.38
2023-03-29T00:38:31.801Z,5.70
2023-03-29T00:40:58.634Z,8.45
2023-03-29T00:43:25.469Z,6.68
2023-03-29T00:45:52.596Z,10.98
2023-03-29T00:48:26.348Z,11.35
2023-03-29T00:51:20.792Z,9.63
2023-03-29T00:53:50.753Z,11.65
2023-03-29T00:56:31.287Z,8.60
2023-03-29T00:59:09.688Z,8.65
2023-03-29T01:01:46.686Z,13.40
2023-03-29T01:04:20.297Z,8.63
2023-03-29T01:06:57.150Z,8.88
2023-03-29T01:09:27.094Z,9.32
2023-03-29T01:11:56.751Z,7.97
2023-03-29T01:14:31.078Z,11.48
2023-03-29T01:16:57.560Z,10.48
2023-03-29T01:19:30.252Z,9.30
2023-03-29T01:22:13.529Z,6.50
2023-03-29T01:25:16.979Z,8.68
2023-03-29T01:27:53.243Z,8.32
2023-03-29T01:30:26.660Z,7.93
2023-03-29T01:32:59.109Z,8.50
2023-03-29T01:35:49.249Z,8.02
2023-03-29T01:38:30.631Z,6.43
2023-03-29T01:40:57.141Z,9.50
2023-03-29T01:43:31.248Z,7.75
2023-03-29T01:46:27.393Z,10.63
2023-03-29T01:49:01.624Z,7.82
2023-03-29T01:51:42.292Z,10.55
2023-03-29T01:54:35.273Z,6.00
2023-03-29T01:57:05.690Z,13.50
2023-03-29T01:59:35.680Z,6.63
2023-03-29T02:02:05.783Z,10.25
2023-03-29T02:04:35.746Z,8.45
2023-03-29T02:07:05.028Z,9.80
2023-03-29T02:09:33.498Z,11.75
2023-03-29T02:12:01.020Z,14.05
2023-03-29T02:14:27.597Z,12.63
2023-03-29T02:16:54.096Z,7.13
2023-03-29T02:19:21.710Z,10.90
2023-03-29T02:21:57.505Z,12.93
2023-03-29T02:24:26.095Z,12.85
2023-03-29T02:26:52.589Z,11.55
2023-03-29T02:29:19.105Z,15.65
2023-03-29T02:31:58.610Z,10.10
2023-03-29T02:34:38.861Z,10.52
2023-03-29T02:37:11.653Z,11.23
2023-03-29T02:39:39.432Z,9.18
2023-03-29T02:42:07.392Z,9.07
2023-03-29T02:44:39.065Z,12.63
2023-03-29T02:47:38.057Z,8.95
2023-03-29T02:50:05.222Z,6.35
2023-03-29T02:52:39.190Z,11.77
2023-03-29T02:55:11.370Z,8.02
2023-03-29T02:57:39.322Z,8.27
2023-03-29T03:00:10.201Z,8.40
2023-03-29T03:02:37.834Z,8.10
2023-03-29T03:05:05.802Z,7.97
2023-03-29T03:07:33.722Z,13.27
2023-03-29T03:10:00.205Z,10.43
2023-03-29T03:12:27.064Z,9.18
2023-03-29T03:14:53.552Z,11.27
2023-03-29T03:17:19.976Z,11.57
2023-03-29T03:19:46.358Z,7.28
2023-03-29T03:22:12.870Z,16.38
2023-03-29T03:24:39.312Z,9.95
2023-03-29T03:27:06.143Z,9.32
2023-03-29T03:29:32.575Z,6.43
2023-03-29T03:31:59.107Z,8.70
2023-03-29T03:34:26.196Z,10.27
2023-03-29T03:36:55.410Z,11.00
2023-03-29T03:39:21.953Z,10.02
2023-03-29T03:41:48.508Z,9.88
2023-03-29T03:44:14.939Z,11.50
2023-03-29T03:46:41.481Z,12.98
2023-03-29T03:49:07.904Z,10.10
2023-03-29T03:51:34.504Z,12.90
2023-03-29T03:54:01.149Z,9.02
2023-03-29T03:56:29.748Z,13.02
2023-03-29T03:58:56.946Z,11.82
2023-03-29T04:01:23.944Z,10.02
2023-03-29T04:03:50.806Z,8.50
2023-03-29T04:06:17.291Z,10.38
2023-03-29T04:08:43.745Z,12.65
2023-03-29T04:11:10.549Z,9.82
2023-03-29T04:13:37.102Z,9.15
2023-03-29T04:16:03.911Z,16.15
2023-03-29T04:18:30.638Z,15.98
2023-03-29T04:20:57.091Z,9.52
2023-03-29T04:23:23.599Z,6.65
2023-03-29T04:25:53.636Z,9.02
2023-03-29T04:28:20.292Z,11.10
2023-03-29T04:30:48.085Z,8.23
2023-03-29T04:33:15.277Z,13.38
2023-03-29T04:35:42.332Z,16.65
2023-03-29T04:38:10.062Z,7.05
2023-03-29T04:40:36.514Z,11.32
2023-03-29T04:43:02.989Z,13.60
2023-03-29T04:45:29.925Z,14.90
2023-03-29T04:47:59.606Z,11.68
2023-03-29T04:50:26.299Z,11.32
2023-03-29T04:52:52.774Z,8.93
2023-03-29T04:55:19.409Z,9.70
2023-03-29T04:57:46.066Z,7.80
2023-03-29T05:00:16.878Z,13.80
2023-03-29T05:02:44.523Z,7.65
2023-03-29T05:05:12.055Z,11.05
2023-03-29T05:07:39.336Z,12.77
2023-03-29T05:10:06.607Z,13.23
2023-03-29T05:12:33.048Z,10.90
2023-03-29T05:14:59.481Z,14.43
2023-03-29T05:17:27.296Z,12.60
2023-03-29T05:19:54.213Z,13.40
2023-03-29T05:22:21.623Z,13.10
2023-03-29T05:24:48.292Z,15.90
2023-03-29T05:27:14.788Z,12.50
2023-03-29T05:29:41.227Z,15.27
2023-03-29T05:32:07.867Z,9.43
2023-03-29T05:34:34.327Z,9.68
2023-03-29T05:37:01.457Z,17.65
2023-03-29T05:39:27.893Z,10.15
2023-03-29T05:41:55.156Z,9.93
2023-03-29T05:44:21.749Z,10.23
2023-03-29T05:46:48.199Z,7.68
2023-03-29T05:49:14.586Z,13.35
2023-03-29T05:51:42.092Z,12.75
2023-03-29T05:54:08.540Z,9.52
2023-03-29T05:56:34.947Z,12.73
2023-03-29T05:59:02.117Z,9.98
2023-03-29T06:01:28.642Z,13.80
2023-03-29T06:03:56.379Z,14.60
2023-03-29T06:06:23.095Z,10.20
2023-03-29T06:08:50.485Z,8.45
2023-03-29T06:11:17.527Z,14.32
2023-03-29T06:13:43.991Z,12.15
2023-03-29T06:16:11.153Z,12.40
2023-03-29T06:18:39.997Z,10.25
2023-03-29T06:21:09.135Z,15.98
2023-03-29T06:23:36.367Z,10.43
2023-03-29T06:26:03.387Z,10.18
2023-03-29T06:28:29.847Z,10.30
2023-03-29T06:30:56.618Z,9.60
2023-03-29T06:33:25.128Z,12.95
2023-03-29T06:35:51.668Z,12.63
2023-03-29T06:38:18.135Z,13.50
2023-03-29T06:40:44.735Z,9.60
2023-03-29T06:43:11.860Z,15.00
2023-03-29T06:45:39.344Z,12.68
2023-03-29T06:48:07.855Z,11.27
2023-03-29T06:50:35.409Z,13.15
2023-03-29T06:53:02.317Z,12.55
2023-03-29T06:55:28.715Z,11.82
2023-03-29T06:57:55.214Z,12.52
2023-03-29T07:00:27.991Z,16.10
2023-03-29T07:02:56.498Z,11.98
2023-03-29T07:05:23.919Z,13.23
2023-03-29T07:07:55.049Z,16.15
2023-03-29T07:10:28.038Z,12.55
2023-03-29T07:12:55.026Z,12.77
2023-03-29T07:15:21.823Z,10.38
2023-03-29T07:17:49.287Z,14.27
2023-03-29T07:20:16.581Z,8.57
2023-03-29T07:22:44.275Z,12.88
2023-03-29T07:25:12.637Z,13.13
2023-03-29T07:27:42.073Z,28.08
2023-03-29T07:30:11.398Z,21.60
2023-03-29T07:32:39.443Z,16.90
2023-03-29T07:35:07.798Z,21.73
2023-03-29T07:37:37.325Z,22.20
2023-03-29T07:40:08.982Z,16.95
2023-03-29T07:42:38.835Z,12.75
2023-03-29T07:45:09.535Z,13.57
2023-03-29T07:47:36.098Z,14.52
2023-03-29T07:50:04.314Z,9.43
2023-03-29T07:52:30.771Z,11.98
2023-03-29T07:54:57.377Z,10.30
2023-03-29T07:57:25.610Z,9.13
2023-03-29T07:59:53.960Z,9.93
2023-03-29T08:02:21.122Z,8.25
2023-03-29T08:04:48.206Z,36.03
2023-03-29T08:07:17.788Z,29.60
2023-03-29T08:09:45.650Z,20.53
2023-03-29T08:12:12.576Z,8.05
2023-03-29T08:14:39.084Z,9.13
2023-03-29T08:17:06.160Z,12.10
2023-03-29T08:19:32.706Z,12.10
2023-03-29T08:22:00.551Z,9.00
2023-03-29T08:24:27.216Z,16.65
2023-03-29T08:26:53.893Z,14.20
2023-03-29T08:29:20.598Z,13.73
2023-03-29T08:31:47.190Z,7.30
2023-03-29T08:34:14.032Z,8.05
2023-03-29T08:36:40.563Z,8.35
2023-03-29T08:39:07.068Z,9.98
2023-03-29T08:41:52.277Z,9.50
2023-03-29T08:44:55.978Z,9.27
2023-03-29T08:48:01.030Z,10.93
2023-03-29T08:50:33.991Z,12.65
2023-03-29T08:53:20.195Z,7.97
2023-03-29T08:55:51.641Z,8.50
2023-03-29T08:58:24.475Z,9.85
2023-03-29T09:00:57.341Z,7.90
2023-03-29T09:03:35.601Z,5.75
2023-03-29T09:06:08.077Z,7.47
2023-03-29T09:08:43.906Z,11.27
2023-03-29T09:11:19.274Z,9.45
2023-03-29T09:14:06.959Z,9.55
2023-03-29T09:16:44.961Z,8.38
2023-03-29T09:19:31.430Z,12.48
2023-03-29T09:22:08.491Z,9.98
2023-03-29T09:24:38.322Z,10.18
2023-03-29T09:27:10.109Z,10.10
2023-03-29T09:29:45.229Z,10.80
2023-03-29T09:32:24.975Z,6.78
2023-03-29T09:35:15.435Z,6.03
2023-03-29T09:37:42.446Z,7.45
2023-03-29T09:40:17.553Z,4.45
2023-03-29T09:42:45.746Z,10.27
2023-03-29T09:45:12.203Z,8.60
2023-03-29T09:47:45.101Z,5.82
2023-03-29T09:50:30.856Z,11.88
2023-03-29T09:52:58.504Z,12.18
2023-03-29T09:55:31.264Z,9.27
2023-03-29T09:58:00.656Z,6.75
2023-03-29T10:00:27.516Z,7.57
2023-03-29T10:02:56.940Z,6.75
2023-03-29T10:05:26.166Z,6.90
2023-03-29T10:07:57.745Z,7.53
2023-03-29T10:10:33.630Z,8.48
2023-03-29T10:13:04.339Z,5.50
2023-03-29T10:15:31.636Z,8.13
2023-03-29T10:18:05.618Z,7.22
2023-03-29T10:20:36.357Z,5.43
2023-03-29T10:23:06.633Z,5.22
2023-03-29T10:25:36.885Z,6.88
2023-03-29T10:28:20.986Z,8.10
2023-03-29T10:30:53.830Z,7.03
2023-03-29T10:33:23.997Z,6.50
2023-03-29T10:35:51.503Z,8.35
2023-03-29T10:38:20.704Z,6.25
2023-03-29T10:40:49.482Z,5.93
2023-03-29T10:43:26.251Z,8.02
2023-03-29T10:46:05.797Z,6.32
2023-03-29T10:48:35.906Z,7.55
2023-03-29T10:51:05.978Z,5.70
2023-03-29T10:53:34.903Z,6.00
2023-03-29T10:56:04.177Z,5.13
2023-03-29T10:58:55.362Z,5.85
2023-03-29T11:01:32.223Z,6.47
2023-03-29T11:04:04.712Z,5.30
2023-03-29T11:06:49.641Z,7.18
2023-03-29T11:09:26.999Z,4.85
2023-03-29T11:12:35.640Z,7.65
2023-03-29T11:15:39.910Z,7.75
2023-03-29T11:18:18.881Z,8.85
2023-03-29T11:20:52.545Z,8.07
2023-03-29T11:23:48.040Z,8.13
2023-03-29T11:26:29.883Z,7.18
2023-03-29T11:31:37.983Z,9.35
2023-03-29T11:34:18.968Z,4.88
2023-03-29T11:36:50.392Z,3.50
2023-03-29T11:39:44.735Z,3.90
2023-03-29T11:42:21.479Z,7.00
2023-03-29T11:44:54.104Z,4.55
2023-03-29T11:47:23.659Z,7.43
2023-03-29T11:49:57.804Z,5.75
2023-03-29T11:52:40.452Z,10.57
2023-03-29T11:55:16.376Z,9.52
2023-03-29T11:58:01.040Z,14.18
2023-03-29T12:00:38.470Z,13.18
2023-03-29T12:03:17.462Z,19.23
2023-03-29T12:05:43.977Z,13.60
2023-03-29T12:08:17.780Z,10.25
2023-03-29T12:10:50.119Z,10.32
2023-03-29T12:13:22.583Z,9.23
2023-03-29T12:15:56.718Z,5.95
2023-03-29T12:18:41.082Z,4.93
2023-03-29T12:21:15.182Z,7.47
2023-03-29T12:23:43.263Z,4.97
2023-03-29T12:26:41.022Z,4.93
2023-03-29T12:30:12.530Z,6.43
2023-03-29T12:32:57.769Z,6.90
2023-03-29T12:35:52.360Z,7.25
2023-03-29T12:38:30.937Z,7.20
2023-03-29T12:41:00.769Z,6.07
2023-03-29T12:43:31.865Z,5.15
2023-03-29T12:46:06.259Z,3.35
2023-03-29T12:48:34.071Z,4.65
2023-03-29T12:51:03.508Z,7.60
2023-03-29T12:53:41.929Z,6.97
2023-03-29T12:56:10.373Z,4.45
2023-03-29T12:58:39.838Z,7.07
2023-03-29T13:01:33.215Z,9.52
2023-03-29T13:03:59.644Z,4.65
2023-03-29T13:06:28.883Z,6.72
2023-03-29T13:09:21.439Z,9.25
2023-03-29T13:12:32.156Z,11.10
2023-03-29T13:15:02.591Z,6.55
2023-03-29T13:17:38.057Z,4.97
2023-03-29T13:20:10.850Z,4.65
2023-03-29T13:22:59.328Z,9.15
2023-03-29T13:25:33.611Z,13.65
2023-03-29T13:28:12.190Z,7.93
2023-03-29T13:30:55.736Z,9.13
2023-03-29T13:33:43.608Z,9.15
2023-03-29T13:36:47.636Z,4.97
2023-03-29T13:39:22.902Z,5.18
2023-03-29T13:41:54.127Z,5.85
2023-03-29T13:44:43.451Z,6.63
2023-03-29T13:47:18.198Z,7.63
2023-03-29T13:49:53.128Z,11.18
2023-03-29T13:52:29.174Z,6.10
2023-03-29T13:55:02.044Z,7.10
2023-03-29T13:57:38.820Z,7.03
2023-03-29T14:00:11.810Z,6.05
2023-03-29T14:02:50.096Z,6.03
2023-03-29T14:05:21.614Z,6.32
2023-03-29T14:07:52.549Z,6.82
2023-03-29T14:10:27.301Z,11.38
2023-03-29T14:12:55.815Z,13.30
2023-03-29T14:15:36.762Z,6.55
2023-03-29T14:18:03.550Z,9.87
2023-03-29T14:20:32.776Z,13.13
2023-03-29T14:22:59.309Z,8.75
2023-03-29T14:25:26.086Z,10.48
2023-03-29T14:27:52.524Z,8.05
2023-03-29T14:30:31.728Z,7.60
2023-03-29T14:32:58.246Z,9.57
2023-03-29T14:35:31.540Z,7.25
2023-03-29T14:37:58.996Z,7.40
2023-03-29T14:40:27.521Z,5.32
2023-03-29T14:42:54.293Z,10.05
2023-03-29T14:45:23.203Z,11.20
2023-03-29T14:47:50.724Z,10.02
2023-03-29T14:50:28.144Z,14.35
2023-03-29T14:52:57.603Z,16.80
2023-03-29T14:55:24.853Z,14.07
2023-03-29T14:57:54.680Z,14.45
2023-03-29T15:00:26.841Z,12.07
2023-03-29T15:02:55.881Z,11.23
2023-03-29T15:05:33.031Z,14.77
2023-03-29T15:08:01.845Z,13.30
2023-03-29T15:10:33.216Z,15.52
2023-03-29T15:13:02.506Z,12.02
2023-03-29T15:15:33.305Z,13.95
2023-03-29T15:18:00.807Z,9.43
2023-03-29T15:20:32.518Z,8.07
2023-03-29T15:25:37.534Z,7.47
2023-03-29T15:28:04.892Z,9.82
2023-03-29T15:30:38.280Z,15.70
2023-03-29T15:33:24.202Z,7.40
2023-03-29T15:35:53.779Z,10.60
2023-03-29T15:38:25.447Z,7.55
2023-03-29T15:41:00.809Z,9.45
2023-03-29T15:43:27.618Z,12.43
2023-03-29T15:45:55.047Z,12.00
2023-03-29T15:48:25.619Z,9.13
2023-03-29T15:50:53.523Z,9.65
2023-03-29T15:53:21.862Z,16.98
2023-03-29T15:55:51.405Z,12.57
2023-03-29T15:58:22.689Z,12.38
2023-03-29T16:00:59.052Z,15.38
2023-03-29T16:03:27.298Z,29.23
2023-03-29T16:05:56.743Z,18.08
2023-03-29T16:08:24.929Z,24.52
2023-03-29T16:10:51.531Z,16.13
2023-03-29T16:13:18.334Z,12.50
2023-03-29T16:15:46.053Z,8.63
2023-03-29T16:18:12.521Z,11.70
2023-03-29T16:20:39.136Z,11.57
2023-03-29T16:23:09.680Z,11.35
2023-03-29T16:25:38.427Z,10.85
2023-03-29T16:28:05.514Z,10.10
2023-03-29T16:30:32.259Z,12.30
2023-03-29T16:32:58.815Z,10.88
2023-03-29T16:35:31.198Z,11.88
2023-03-29T16:37:57.856Z,9.13
2023-03-29T16:40:25.974Z,8.98
2023-03-29T16:42:52.508Z,9.13
2023-03-29T16:45:19.518Z,10.95
2023-03-29T16:47:46.095Z,8.68
2023-03-29T16:50:19.025Z,8.10
2023-03-29T16:52:48.313Z,11.75
2023-03-29T16:55:15.688Z,12.23
2023-03-29T16:57:42.705Z,9.63
2023-03-29T17:00:15.805Z,11.32
2023-03-29T17:02:43.354Z,11.32
2023-03-29T17:05:11.707Z,14.00
2023-03-29T17:07:39.350Z,16.77
2023-03-29T17:10:11.025Z,16.85
2023-03-29T17:15:06.465Z,13.45
2023-03-29T17:17:33.989Z,13.82
2023-03-29T17:20:00.577Z,13.63
2023-03-29T17:22:27.110Z,15.00
2023-03-29T17:24:53.567Z,10.80
2023-03-29T17:27:20.932Z,9.93
2023-03-29T17:29:47.543Z,11.32
2023-03-29T17:32:14.087Z,10.32
2023-03-29T17:34:40.816Z,10.48
2023-03-29T17:37:07.612Z,11.23
2023-03-29T17:39:37.297Z,11.27
2023-03-29T17:42:05.239Z,13.15
2023-03-29T17:44:33.292Z,11.52
2023-03-29T17:47:01.189Z,14.40
2023-03-29T17:49:28.017Z,15.45
2023-03-29T17:51:54.781Z,15.48
2023-03-29T17:54:21.278Z,11.48
2023-03-29T17:56:48.861Z,14.85
2023-03-29T17:59:15.560Z,12.45
2023-03-29T18:01:42.376Z,15.30
2023-03-29T18:04:09.303Z,9.88
2023-03-29T18:06:35.935Z,11.73
2023-03-29T18:09:03.161Z,12.32
2023-03-29T18:11:29.736Z,12.82
2023-03-29T18:13:59.818Z,10.25
2023-03-29T18:16:26.935Z,11.30
2023-03-29T18:18:53.579Z,12.75
2023-03-29T18:21:20.290Z,13.95
2023-03-29T18:23:48.503Z,11.30
2023-03-29T18:26:16.426Z,10.18
2023-03-29T18:28:48.557Z,10.32
2023-03-29T18:31:15.622Z,9.95
2023-03-29T18:33:42.310Z,10.23
2023-03-29T18:36:12.966Z,11.32
2023-03-29T18:38:43.021Z,13.13
2023-03-29T18:41:12.114Z,29.15
2023-03-29T18:43:39.721Z,22.25
2023-03-29T18:46:09.651Z,12.30
2023-03-29T18:48:38.884Z,11.77
2023-03-29T18:51:07.444Z,12.63
2023-03-29T18:53:35.417Z,14.15
2023-03-29T18:56:03.446Z,11.60
2023-03-29T18:58:31.556Z,10.50
2023-03-29T19:01:03.694Z,11.40
2023-03-29T19:03:31.725Z,11.30
2023-03-29T19:05:58.592Z,9.90
2023-03-29T19:08:28.419Z,12.90
2023-03-29T19:11:01.966Z,12.77
2023-03-29T19:13:28.847Z,14.30
2023-03-29T19:15:55.512Z,10.80
2023-03-29T19:18:22.038Z,10.77
2023-03-29T19:20:52.672Z,11.02
2023-03-29T19:23:19.762Z,15.68
2023-03-29T19:25:57.624Z,14.25
2023-03-29T19:28:25.641Z,13.10
2023-03-29T19:30:52.780Z,10.15
2023-03-29T19:33:20.030Z,10.73
2023-03-29T19:35:49.193Z,11.25
2023-03-29T19:38:18.302Z,11.88
2023-03-29T19:40:46.906Z,12.77
2023-03-29T19:43:16.978Z,12.63
2023-03-29T19:45:48.823Z,12.00
2023-03-29T19:48:22.295Z,9.20
2023-03-29T19:50:50.178Z,11.00
2023-03-29T19:53:16.865Z,10.10
2023-03-29T19:55:45.382Z,12.35
2023-03-29T19:58:12.664Z,11.38
2023-03-29T20:00:39.353Z,9.32
2023-03-29T20:03:10.452Z,9.05
2023-03-29T20:05:38.830Z,12.15
2023-03-29T20:08:06.476Z,9.07
2023-03-29T20:10:33.829Z,8.93
2023-03-29T20:13:00.465Z,12.63
2023-03-29T20:15:27.109Z,12.88
2023-03-29T20:17:56.412Z,14.45
2023-03-29T20:22:57.929Z,11.50
2023-03-29T20:25:24.819Z,15.75
2023-03-29T20:27:51.421Z,8.52
2023-03-29T20:30:17.931Z,11.23
2023-03-29T20:32:44.587Z,12.68
2023-03-29T20:35:11.921Z,12.05
2023-03-29T20:37:38.328Z,12.57
2023-03-29T20:40:06.398Z,10.85
2023-03-29T20:42:34.421Z,11.90
2023-03-29T20:45:01.340Z,13.02
2023-03-29T20:47:29.433Z,15.65
2023-03-29T20:49:56.717Z,14.20
2023-03-29T20:52:23.904Z,12.55
2023-03-29T20:54:50.731Z,10.32
2023-03-29T20:57:19.810Z,12.68
2023-03-29T20:59:48.856Z,15.82
2023-03-29T21:02:21.918Z,13.63
2023-03-29T21:04:52.730Z,17.67
2023-03-29T21:07:20.216Z,14.10
2023-03-29T21:09:50.248Z,14.45
2023-03-29T21:12:17.233Z,15.75
2023-03-29T21:14:44.562Z,11.80
2023-03-29T21:17:11.043Z,13.55
2023-03-29T21:19:39.237Z,14.30
2023-03-29T21:22:06.103Z,13.57
2023-03-29T21:24:33.179Z,12.15
2023-03-29T21:27:00.523Z,13.30
2023-03-29T21:29:27.442Z,18.17
2023-03-29T21:31:54.326Z,12.98
2023-03-29T21:34:20.933Z,13.13
2023-03-29T21:36:47.500Z,17.05
2023-03-29T21:39:14.344Z,10.63
2023-03-29T21:41:41.017Z,16.83
2023-03-29T21:44:07.455Z,12.02
2023-03-29T21:46:33.989Z,13.93
2023-03-29T21:49:00.577Z,13.85
2023-03-29T21:51:27.047Z,15.38
2023-03-29T21:53:53.516Z,13.35
2023-03-29T21:56:19.968Z,12.23
2023-03-29T21:58:46.373Z,15.32
2023-03-29T22:01:12.953Z,14.20
2023-03-29T22:03:39.425Z,15.35
2023-03-29T22:06:09.335Z,18.58
2023-03-29T22:08:38.773Z,15.45
2023-03-29T22:11:08.581Z,14.63
2023-03-29T22:13:35.408Z,14.05
2023-03-29T22:16:03.753Z,12.30
2023-03-29T22:18:42.594Z,16.48
2023-03-29T22:21:18.302Z,15.32
2023-03-29T22:23:50.757Z,13.82
2023-03-29T22:26:19.688Z,14.05
2023-03-29T22:28:46.096Z,13.57
2023-03-29T22:31:15.101Z,17.77
2023-03-29T22:33:42.529Z,15.00
2023-03-29T22:36:29.684Z,12.70
2023-03-29T22:38:56.918Z,14.20
2023-03-29T22:41:25.867Z,17.88
2023-03-29T22:43:53.912Z,15.30
2023-03-29T22:46:20.911Z,14.32
2023-03-29T22:48:47.770Z,15.02
2023-03-29T22:51:15.110Z,13.98
2023-03-29T22:53:41.834Z,11.80
2023-03-29T22:56:09.124Z,14.85
2023-03-29T22:58:37.061Z,15.40
2023-03-29T23:01:05.395Z,15.65
2023-03-29T23:03:32.173Z,12.88
2023-03-29T23:06:02.250Z,12.43
2023-03-29T23:08:30.984Z,13.98
2023-03-29T23:10:58.243Z,12.25
2023-03-29T23:13:28.517Z,15.68
2023-03-29T23:15:57.903Z,13.20
2023-03-29T23:18:25.232Z,13.02
2023-03-29T23:20:54.582Z,14.23
2023-03-29T23:23:22.837Z,16.40
2023-03-29T23:25:51.567Z,13.52
2023-03-29T23:28:21.623Z,14.35
2023-03-29T23:30:56.847Z,12.98
2023-03-29T23:33:25.418Z,18.55
2023-03-29T23:35:52.011Z,12.75
2023-03-29T23:38:18.493Z,15.13
2023-03-29T23:40:52.773Z,13.43
2023-03-29T23:43:19.205Z,15.07
2023-03-29T23:45:45.593Z,16.63
2023-03-29T23:48:12.362Z,14.27
2023-03-29T23:50:38.806Z,14.10
2023-03-29T23:53:06.429Z,13.50
2023-03-29T23:55:32.841Z,14.90
2023-03-29T23:57:59.275Z,17.77
